Meteorología y climatología de Navarra
Datos de la estación - Meteo Navarra

Estación de Bardenas (El Yugo) GN

Altitud 486 m.


Datos desde el 12/09/2019 hasta el 13/09/2019 en horario solar
Los datos son PROVISIONALES

Anterior Página 1 de 1 Siguiente Descargar: Formato para Excel 2000 o superior   Formato csv   Formato para OpenOffice Calc
Fecha Temperatura Humedad relativa Radiación global Insolación Precipitación Vel. viento 10 m Vel. viento 10 m Dir. viento 10 m
ºC % W/m² s l/m² m/s km/h º
12/09/2019 0:00 13.9 71 0.0 0 0.0 7.6 27.3 310
12/09/2019 0:10 13.9 71 0.0 0 0.0 7.3 26.4 310
12/09/2019 0:20 13.9 71 0.0 0 0.0 7.2 26.0 310
12/09/2019 0:30 13.9 71 0.0 0 0.0 7.1 25.7 308
12/09/2019 0:40 13.9 71 0.0 0 0.0 7.9 28.3 307
12/09/2019 0:50 13.9 71 0.0 0 0.0 8.2 29.3 310
12/09/2019 1:00 14.0 70 0.0 0 0.0 7.5 27.1 310
12/09/2019 1:10 14.0 70 0.0 0 0.0 8.1 29.1 307
12/09/2019 1:20 13.9 71 0.0 0 0.0 7.5 27.0 308
12/09/2019 1:30 13.8 72 0.0 0 0.0 7.1 25.5 308
12/09/2019 1:40 13.8 72 0.0 0 0.0 7.5 27.0 308
12/09/2019 1:50 13.8 72 0.0 0 0.0 7.6 27.4 309
12/09/2019 2:00 13.7 73 0.0 0 0.0 7.4 26.7 308
12/09/2019 2:10 13.6 73 0.0 0 0.0 6.4 23.0 311
12/09/2019 2:20 13.5 74 0.0 0 0.0 6.1 21.8 308
12/09/2019 2:30 13.3 75 0.0 0 0.0 6.1 21.9 302
12/09/2019 2:40 13.1 77 0.0 0 0.0 5.3 19.1 302
12/09/2019 2:50 12.8 79 0.0 0 0.0 5.0 18.1 302
12/09/2019 3:00 12.6 80 0.0 0 0.0 4.6 16.5 303
12/09/2019 3:10 12.5 80 0.0 0 0.0 5.4 19.4 300
12/09/2019 3:20 12.4 81 0.0 0 0.0 5.5 19.8 298
12/09/2019 3:30 12.5 80 0.0 0 0.0 5.7 20.6 299
12/09/2019 3:40 12.7 79 0.0 0 0.0 5.6 20.2 300
12/09/2019 3:50 12.7 79 0.0 0 0.0 5.2 18.9 309
12/09/2019 4:00 12.4 81 0.0 0 0.0 5.0 18.0 310
12/09/2019 4:10 12.5 81 0.0 0 0.0 5.6 20.0 312
12/09/2019 4:20 12.6 81 0.0 0 0.0 6.0 21.5 311
12/09/2019 4:30 12.6 81 0.0 0 0.0 5.7 20.4 310
12/09/2019 4:40 12.5 81 0.0 0 0.0 6.1 21.8 310
12/09/2019 4:50 12.6 81 0.0 0 0.0 6.1 21.9 312
12/09/2019 5:00 12.6 81 0.0 0 0.0 5.9 21.1 315
12/09/2019 5:10 12.6 81 0.0 0 0.0 5.9 21.3 309
12/09/2019 5:20 12.5 81 0.0 0 0.0 5.7 20.7 309
12/09/2019 5:30 12.5 82 0.0 0 0.0 6.0 21.6 312
12/09/2019 5:40 12.5 82 0.0 0 0.0 5.1 18.3 308
12/09/2019 5:50 12.5 82 0.0 0 0.0 5.6 20.1 307
12/09/2019 6:00 12.6 81 9.4 0 0.0 6.0 21.6 307
12/09/2019 6:10 12.7 81 32.3 370 0.0 5.9 21.2 303
12/09/2019 6:20 12.8 81 54.6 600 0.0 6.6 23.7 306
12/09/2019 6:30 12.9 81 80.1 600 0.0 5.6 20.2 308
12/09/2019 6:40 13.0 80 108.7 600 0.0 5.5 19.7 306
12/09/2019 6:50 13.2 78 139.0 600 0.0 5.6 20.2 311
12/09/2019 7:00 13.7 77 169.6 600 0.0 5.6 20.0 311
12/09/2019 7:10 14.1 75 199.9 600 0.0 4.6 16.5 313
12/09/2019 7:20 14.6 73 230.8 600 0.0 4.6 16.6 312
12/09/2019 7:30 14.9 70 262.6 600 0.0 4.4 15.9 313
12/09/2019 7:40 15.2 68 296.0 600 0.0 5.1 18.3 304
12/09/2019 7:50 15.3 68 330.0 600 0.0 4.5 16.0 305
12/09/2019 8:00 15.6 66 363.7 600 0.0 5.2 18.7 307
12/09/2019 8:10 16.0 64 394.9 600 0.0 4.6 16.6 309
12/09/2019 8:20 16.6 62 425.0 600 0.0 4.2 15.2 306
12/09/2019 8:30 16.7 62 455.4 600 0.0 5.2 18.8 302
12/09/2019 8:40 17.1 61 484.7 600 0.0 4.4 15.8 305
12/09/2019 8:50 17.6 60 511.6 600 0.0 4.1 14.8 304
12/09/2019 9:00 17.9 59 537.8 600 0.0 4.7 17.0 303
12/09/2019 9:10 18.2 57 566.9 600 0.0 4.4 15.8 305
12/09/2019 9:20 18.6 56 590.2 600 0.0 4.5 16.1 302
12/09/2019 9:30 19.1 55 615.9 600 0.0 4.2 15.2 304
12/09/2019 9:40 19.7 52 638.7 600 0.0 4.2 15.3 300
12/09/2019 9:50 19.8 52 661.1 600 0.0 4.7 17.0 297
12/09/2019 10:00 20.2 51 682.0 600 0.0 4.3 15.4 306
12/09/2019 10:10 20.4 50 701.8 600 0.0 4.1 14.6 302
12/09/2019 10:20 21.0 48 718.8 600 0.0 4.3 15.6 302
12/09/2019 10:30 21.1 48 735.2 600 0.0 4.1 14.6 292
12/09/2019 10:40 21.5 47 751.3 600 0.0 3.5 12.5 308
12/09/2019 10:50 22.2 45 763.9 600 0.0 3.1 11.1 310
12/09/2019 11:00 22.7 43 777.0 600 0.0 2.8 10.1 304
12/09/2019 11:10 23.0 43 750.6 600 0.0 2.9 10.4 308
12/09/2019 11:20 23.6 41 781.3 600 0.0 2.7 9.7 350
12/09/2019 11:30 23.8 40 806.0 600 0.0 2.3 8.2 345
12/09/2019 11:40 24.2 39 791.4 600 0.0 1.8 6.5 353
12/09/2019 11:50 24.5 38 808.0 600 0.0 2.3 8.2 320
12/09/2019 12:00 25.0 38 812.0 600 0.0 2.7 9.6 326
12/09/2019 12:10 25.6 36 812.0 600 0.0 2.3 8.4 348
12/09/2019 12:20 25.7 36 811.0 600 0.0 2.1 7.4 316
12/09/2019 12:30 25.6 36 807.0 600 0.0 2.0 7.2 316
12/09/2019 12:40 26.0 35 806.0 600 0.0 1.7 6.2 293
12/09/2019 12:50 26.3 34 802.0 600 0.0 1.5 5.2 282
12/09/2019 13:00 26.8 33 792.4 600 0.0 2.1 7.5 305
12/09/2019 13:10 27.2 33 783.1 600 0.0 2.3 8.3 256
12/09/2019 13:20 27.1 33 772.6 600 0.0 2.3 8.2 214
12/09/2019 13:30 27.8 32 760.2 600 0.0 3.6 13.0 225
12/09/2019 13:40 27.6 33 744.9 600 0.0 2.9 10.5 244
12/09/2019 13:50 27.8 32 729.3 600 0.0 2.5 8.9 230
12/09/2019 14:00 27.3 33 712.7 600 0.0 1.7 6.1 225
12/09/2019 14:10 27.8 31 692.9 600 0.0 2.1 7.6 220
12/09/2019 14:20 27.7 31 673.0 600 0.0 1.7 6.1 212
12/09/2019 14:30 28.5 29 654.7 600 0.0 2.6 9.3 223
12/09/2019 14:40 28.9 28 632.5 600 0.0 3.2 11.4 207
12/09/2019 14:50 28.8 29 606.9 600 0.0 2.6 9.5 251
12/09/2019 15:00 27.8 30 583.8 600 0.0 2.0 7.3 225
12/09/2019 15:10 27.7 30 560.6 600 0.0 1.3 4.7 351
12/09/2019 15:20 28.2 30 532.8 600 0.0 1.6 5.8 356
12/09/2019 15:30 28.2 29 503.3 600 0.0 1.9 6.9 358
12/09/2019 15:40 28.2 29 471.5 600 0.0 0.7 2.6 57
12/09/2019 15:50 28.5 28 437.4 600 0.0 2.4 8.8 15
12/09/2019 16:00 28.3 28 406.0 600 0.0 0.8 3.0 43
12/09/2019 16:10 28.2 28 372.0 600 0.0 0.7 2.4 76
12/09/2019 16:20 28.6 27 335.2 600 0.0 0.3 1.2 81
12/09/2019 16:30 28.7 28 297.6 600 0.0 0.8 2.9 356
12/09/2019 16:40 28.8 28 263.9 600 0.0 2.6 9.2 241
12/09/2019 16:50 28.7 28 231.7 600 0.0 1.9 6.9 268
12/09/2019 17:00 28.5 28 195.5 600 0.0 1.0 3.6 345
12/09/2019 17:10 28.3 28 157.8 600 0.0 1.1 4.0 355
12/09/2019 17:20 28.1 29 120.2 600 0.0 1.0 3.7 300
12/09/2019 17:30 27.9 30 92.9 600 0.0 2.6 9.3 250
12/09/2019 17:40 27.4 30 73.5 600 0.0 2.4 8.7 240
12/09/2019 17:50 27.0 31 53.6 578 0.0 1.9 6.7 252
12/09/2019 18:00 26.6 32 34.7 316 0.0 1.6 5.7 255
12/09/2019 18:10 25.9 34 19.9 0 0.0 2.0 7.0 261
12/09/2019 18:20 25.1 35 0.0 0 0.0 1.6 5.8 253
12/09/2019 18:30 24.4 37 0.0 0 0.0 1.2 4.5 258
12/09/2019 18:40 24.1 37 0.0 0 0.0 1.9 6.9 293
12/09/2019 18:50 24.2 37 0.0 0 0.0 2.5 8.8 302
12/09/2019 19:00 24.2 36 0.0 0 0.0 2.7 9.6 326
12/09/2019 19:10 24.0 37 0.0 0 0.0 2.8 10.2 341
12/09/2019 19:20 23.5 41 0.0 0 0.0 3.4 12.2 340
12/09/2019 19:30 23.2 44 0.0 0 0.0 3.5 12.4 346
12/09/2019 19:40 23.0 45 0.0 0 0.0 3.8 13.6 348
12/09/2019 19:50 22.8 46 0.0 0 0.0 3.5 12.7 345
12/09/2019 20:00 22.5 47 0.0 0 0.0 3.3 11.9 346
12/09/2019 20:10 22.2 48 0.0 0 0.0 3.5 12.7 345
12/09/2019 20:20 21.9 48 0.0 0 0.0 3.6 13.1 347
12/09/2019 20:30 21.6 49 0.0 0 0.0 3.0 10.9 346
12/09/2019 20:40 21.3 50 0.0 0 0.0 3.1 11.0 350
12/09/2019 20:50 21.0 50 0.0 0 0.0 3.0 10.8 349
12/09/2019 21:00 20.8 51 0.0 0 0.0 3.0 10.9 348
12/09/2019 21:10 20.6 52 0.0 0 0.0 2.6 9.3 355
12/09/2019 21:20 20.3 53 0.0 0 0.0 3.0 10.7 353
12/09/2019 21:30 20.0 55 0.0 0 0.0 3.4 12.1 340
12/09/2019 21:40 19.7 57 0.0 0 0.0 2.9 10.4 318
12/09/2019 21:50 18.8 62 0.0 0 0.0 3.1 11.0 284
12/09/2019 22:00 17.9 67 0.0 0 0.0 3.3 12.0 278
12/09/2019 22:10 17.7 68 0.0 0 0.0 4.1 14.9 288
12/09/2019 22:20 17.8 68 0.0 0 0.0 4.3 15.4 292
12/09/2019 22:30 17.9 67 0.0 0 0.0 4.2 14.9 293
12/09/2019 22:40 17.8 67 0.0 0 0.0 3.8 13.6 288
12/09/2019 22:50 17.7 67 0.0 0 0.0 3.5 12.7 286
12/09/2019 23:00 17.6 68 0.0 0 0.0 3.7 13.2 297
12/09/2019 23:10 17.8 66 0.0 0 0.0 3.9 13.9 304
12/09/2019 23:20 17.8 66 0.0 0 0.0 3.9 13.9 299
12/09/2019 23:30 17.7 66 0.0 0 0.0 4.0 14.2 301
12/09/2019 23:40 17.7 66 0.0 0 0.0 4.1 14.9 306
12/09/2019 23:50 17.8 66 0.0 0 0.0 4.1 14.7 311
Anterior Página 1 de 1 Siguiente

NOTA: Tipo de datos según el color:
   - Valores diarios o 10 minutos correctos
   - Valores diarios calculados a partir de un número de datos 10 minutos menor que 144 y mayor que 120, o de un número de datos semihorarios menor que 48 y mayor que 40 (caso de las estaciones de Riegos de Navarra y del MARM)
   - Valores diez minutos estimados


Contacto        Enlaces        Aviso legal